createdAt,value
2022-10-05T00:03:37.728Z,18.20
2022-10-05T00:08:39.531Z,18.20
2022-10-05T00:13:41.846Z,18.10
2022-10-05T00:18:49.886Z,18.20
2022-10-05T00:23:53.991Z,18.20
2022-10-05T00:28:55.762Z,18.00
2022-10-05T00:33:57.980Z,17.90
2022-10-05T00:39:01.447Z,18.00
2022-10-05T00:44:14.813Z,18.00
2022-10-05T00:49:36.689Z,17.90
2022-10-05T00:54:48.759Z,18.00
2022-10-05T01:00:09.191Z,17.90
2022-10-05T01:05:31.653Z,17.70
2022-10-05T01:11:05.337Z,17.70
2022-10-05T01:16:31.216Z,17.90
2022-10-05T01:21:59.787Z,17.70
2022-10-05T01:27:52.065Z,17.60
2022-10-05T01:33:15.838Z,17.60
2022-10-05T01:38:20.296Z,17.60
2022-10-05T01:43:45.038Z,17.70
2022-10-05T01:49:04.860Z,17.80
2022-10-05T01:54:35.643Z,17.90
2022-10-05T01:59:53.653Z,17.90
2022-10-05T02:05:02.995Z,17.80
2022-10-05T02:10:27.104Z,17.90
2022-10-05T02:15:48.096Z,17.80
2022-10-05T02:20:52.249Z,17.80
2022-10-05T02:25:56.218Z,17.70
2022-10-05T02:31:07.595Z,17.60
2022-10-05T02:36:24.337Z,17.70
2022-10-05T02:41:52.879Z,17.60
2022-10-05T02:47:23.620Z,17.70
2022-10-05T02:52:43.575Z,17.60
2022-10-05T02:58:05.854Z,17.50
2022-10-05T03:03:13.632Z,17.50
2022-10-05T03:08:25.833Z,17.70
2022-10-05T03:13:47.449Z,17.70
2022-10-05T03:19:07.064Z,17.90
2022-10-05T03:24:35.943Z,17.90
2022-10-05T03:29:55.202Z,17.80
2022-10-05T03:35:02.629Z,17.80
2022-10-05T03:40:41.444Z,17.80
2022-10-05T03:45:54.938Z,18.20
2022-10-05T03:51:23.192Z,18.10
2022-10-05T03:57:05.309Z,17.80
2022-10-05T04:02:18.239Z,17.60
2022-10-05T04:08:02.641Z,17.40
2022-10-05T04:13:20.501Z,17.30
2022-10-05T04:18:36.225Z,17.40
2022-10-05T04:23:44.445Z,17.70
2022-10-05T04:29:17.059Z,17.50
2022-10-05T04:34:39.859Z,17.10
2022-10-05T04:39:51.348Z,17.00
2022-10-05T04:45:07.501Z,17.30
2022-10-05T04:50:22.126Z,17.10
2022-10-05T04:56:07.926Z,17.00
2022-10-05T05:01:46.479Z,16.80
2022-10-05T05:07:12.447Z,17.00
2022-10-05T05:12:34.623Z,17.20
2022-10-05T05:18:05.896Z,17.00
2022-10-05T05:23:35.715Z,17.00
2022-10-05T05:28:58.444Z,17.00
2022-10-05T05:34:17.264Z,17.10
2022-10-05T05:39:37.571Z,17.30
2022-10-05T05:44:49.816Z,17.40
2022-10-05T05:50:22.795Z,17.10
2022-10-05T05:55:38.717Z,17.20
2022-10-05T06:01:02.501Z,17.20
2022-10-05T06:06:12.430Z,17.20
2022-10-05T06:11:31.898Z,17.40
2022-10-05T06:16:45.117Z,17.60
2022-10-05T06:22:08.841Z,17.40
2022-10-05T06:27:33.787Z,17.40
2022-10-05T06:32:42.957Z,17.60
2022-10-05T06:37:56.991Z,18.30
2022-10-05T06:43:25.909Z,18.00
2022-10-05T06:48:54.148Z,18.00
2022-10-05T06:54:06.726Z,18.20
2022-10-05T06:59:17.170Z,18.30
2022-10-05T07:04:35.973Z,18.90
2022-10-05T07:09:52.430Z,18.80
2022-10-05T07:14:54.077Z,19.10
2022-10-05T07:19:59.385Z,19.50
2022-10-05T07:25:15.797Z,19.50
2022-10-05T07:30:17.665Z,19.40
2022-10-05T07:35:25.304Z,19.30
2022-10-05T07:40:38.982Z,19.60
2022-10-05T07:45:52.012Z,19.90
2022-10-05T07:51:03.381Z,19.90
2022-10-05T07:56:40.317Z,20.20
2022-10-05T08:01:47.572Z,20.60
2022-10-05T08:07:02.424Z,20.60
2022-10-05T08:12:25.118Z,20.80
2022-10-05T08:17:44.564Z,21.00
2022-10-05T08:22:51.934Z,21.30
2022-10-05T08:28:40.213Z,21.30
2022-10-05T08:34:23.619Z,21.30
2022-10-05T08:39:29.884Z,21.70
2022-10-05T08:44:56.157Z,21.60
2022-10-05T08:50:31.516Z,21.60
2022-10-05T08:56:02.526Z,21.80
2022-10-05T09:01:04.275Z,21.70
2022-10-05T09:06:49.010Z,21.30
2022-10-05T09:12:14.614Z,21.30
2022-10-05T09:17:39.446Z,21.40
2022-10-05T09:22:50.214Z,21.60
2022-10-05T09:28:27.546Z,22.10
2022-10-05T09:33:57.028Z,22.30
2022-10-05T09:39:32.668Z,22.50
2022-10-05T09:44:52.546Z,23.20
2022-10-05T09:50:07.147Z,22.70
2022-10-05T09:55:33.718Z,22.90
2022-10-05T10:00:41.110Z,23.80
2022-10-05T10:06:12.476Z,24.10
2022-10-05T10:11:32.300Z,24.20
2022-10-05T10:16:51.725Z,23.90
2022-10-05T10:22:11.248Z,23.80
2022-10-05T10:27:12.863Z,24.10
2022-10-05T10:32:51.575Z,24.00
2022-10-05T10:38:12.087Z,24.20
2022-10-05T10:43:29.805Z,25.10
2022-10-05T10:48:40.429Z,24.90
2022-10-05T10:53:57.368Z,24.60
2022-10-05T10:59:25.525Z,24.70
2022-10-05T11:05:04.105Z,24.60
2022-10-05T11:10:08.481Z,24.10
2022-10-05T11:15:13.212Z,23.80
2022-10-05T11:20:20.675Z,22.70
2022-10-05T11:25:31.293Z,22.70
2022-10-05T11:30:52.087Z,22.70
2022-10-05T11:36:18.751Z,22.70
2022-10-05T11:41:51.465Z,22.70
2022-10-05T11:47:15.596Z,23.30
2022-10-05T11:52:17.272Z,23.10
2022-10-05T11:57:25.781Z,23.20
2022-10-05T12:02:49.182Z,23.70
2022-10-05T12:08:12.764Z,23.40
2022-10-05T12:13:41.298Z,23.10
2022-10-05T12:19:23.509Z,23.00
2022-10-05T12:24:54.138Z,24.30
2022-10-05T12:30:11.517Z,25.40
2022-10-05T12:35:49.281Z,25.00
2022-10-05T12:41:05.949Z,25.10
2022-10-05T12:46:31.605Z,25.40
2022-10-05T12:52:06.119Z,25.90
2022-10-05T12:57:27.127Z,26.10
2022-10-05T13:02:45.357Z,26.10
2022-10-05T13:08:23.575Z,26.00
2022-10-05T13:13:34.469Z,25.60
2022-10-05T13:18:47.872Z,24.50
2022-10-05T13:24:32.924Z,24.50
2022-10-05T13:29:40.124Z,25.10
2022-10-05T13:34:56.880Z,25.90
2022-10-05T13:40:04.915Z,26.00
2022-10-05T13:45:23.621Z,25.30
2022-10-05T13:50:34.908Z,25.80
2022-10-05T13:55:55.994Z,25.30
2022-10-05T14:01:13.234Z,25.80
2022-10-05T14:06:26.271Z,25.80
2022-10-05T14:11:35.112Z,24.80
2022-10-05T14:22:25.121Z,25.30
2022-10-05T14:27:29.587Z,24.70
2022-10-05T14:32:42.507Z,24.80
2022-10-05T14:37:53.478Z,24.90
2022-10-05T14:42:55.354Z,24.70
2022-10-05T14:48:00.155Z,24.20
2022-10-05T14:53:19.060Z,23.80
2022-10-05T14:58:44.883Z,23.40
2022-10-05T15:04:20.137Z,23.70
2022-10-05T15:09:49.579Z,23.80
2022-10-05T15:14:55.853Z,23.60
2022-10-05T15:20:17.270Z,23.50
2022-10-05T15:25:27.928Z,23.20
2022-10-05T15:30:32.322Z,23.10
2022-10-05T15:41:58.094Z,23.10
2022-10-05T15:47:07.210Z,23.10
2022-10-05T15:52:33.415Z,23.10
2022-10-05T15:57:56.119Z,23.00
2022-10-05T16:03:26.038Z,22.90
2022-10-05T16:09:00.446Z,22.80
2022-10-05T16:14:08.258Z,22.80
2022-10-05T16:19:24.593Z,22.80
2022-10-05T16:24:50.486Z,22.70
2022-10-05T16:30:06.516Z,22.60
2022-10-05T16:35:36.224Z,22.40
2022-10-05T16:41:02.820Z,22.40
2022-10-05T16:46:32.184Z,22.40
2022-10-05T16:51:55.251Z,22.10
2022-10-05T16:57:20.913Z,22.00
2022-10-05T17:02:45.358Z,21.90
2022-10-05T17:08:22.346Z,21.80
2022-10-05T17:13:39.380Z,21.80
2022-10-05T17:19:12.118Z,21.50
2022-10-05T17:24:31.904Z,21.50
2022-10-05T17:29:47.607Z,21.40
2022-10-05T17:35:01.725Z,21.40
2022-10-05T17:40:29.310Z,21.40
2022-10-05T17:45:33.759Z,21.40
2022-10-05T17:50:46.874Z,21.30
2022-10-05T17:56:02.782Z,21.20
2022-10-05T18:01:13.728Z,21.00
2022-10-05T18:06:24.043Z,20.70
2022-10-05T18:11:28.657Z,20.70
2022-10-05T18:16:59.398Z,20.60
2022-10-05T18:22:14.934Z,20.50
2022-10-05T18:27:32.213Z,20.50
2022-10-05T18:32:46.048Z,20.20
2022-10-05T18:37:59.521Z,20.10
2022-10-05T18:43:09.929Z,20.00
2022-10-05T18:48:30.006Z,20.00
2022-10-05T18:53:55.757Z,20.00
2022-10-05T18:59:09.810Z,19.80
2022-10-05T19:04:47.836Z,19.80
2022-10-05T19:10:19.658Z,19.70
2022-10-05T19:15:47.753Z,19.50
2022-10-05T19:21:00.995Z,19.40
2022-10-05T19:26:09.000Z,19.50
2022-10-05T19:31:13.453Z,19.50
2022-10-05T19:36:46.839Z,19.40
2022-10-05T19:41:54.267Z,19.40
2022-10-05T19:47:04.850Z,19.40
2022-10-05T19:52:25.715Z,19.30
2022-10-05T19:57:27.407Z,19.20
2022-10-05T20:02:29.119Z,19.20
2022-10-05T20:07:30.852Z,19.20
2022-10-05T20:12:53.467Z,19.00
2022-10-05T20:17:55.215Z,19.00
2022-10-05T20:23:25.657Z,19.40
2022-10-05T20:28:31.832Z,19.00
2022-10-05T20:33:33.978Z,18.90
2022-10-05T20:38:40.603Z,18.80
2022-10-05T20:43:42.789Z,18.80
2022-10-05T20:48:44.441Z,18.70
2022-10-05T20:53:46.113Z,18.70
2022-10-05T20:58:47.785Z,18.90
2022-10-05T21:03:49.991Z,18.80
2022-10-05T21:08:51.894Z,18.70
2022-10-05T21:13:53.727Z,18.90
2022-10-05T21:18:55.527Z,19.20
2022-10-05T21:23:57.212Z,18.80
2022-10-05T21:29:00.569Z,18.80
2022-10-05T21:34:02.407Z,19.00
2022-10-05T21:39:04.104Z,18.80
2022-10-05T21:44:05.781Z,18.60
2022-10-05T21:49:08.220Z,18.80
2022-10-05T21:54:13.644Z,18.70
2022-10-05T21:59:18.308Z,18.70
2022-10-05T22:04:20.391Z,18.70
2022-10-05T22:09:22.342Z,18.70
2022-10-05T22:14:24.072Z,18.70
2022-10-05T22:19:25.770Z,18.40
2022-10-05T22:24:27.452Z,18.40
2022-10-05T22:29:29.346Z,18.40
2022-10-05T22:34:31.049Z,18.40
2022-10-05T22:39:32.876Z,18.40
2022-10-05T22:44:34.887Z,18.50
2022-10-05T22:49:36.541Z,18.40
2022-10-05T22:54:38.648Z,18.40
2022-10-05T22:59:40.366Z,18.40
2022-10-05T23:04:42.060Z,18.10
2022-10-05T23:09:43.719Z,18.30
2022-10-05T23:14:45.423Z,18.20
2022-10-05T23:19:47.103Z,18.30
2022-10-05T23:24:48.885Z,17.70
2022-10-05T23:29:50.543Z,17.70
2022-10-05T23:34:52.213Z,18.20
2022-10-05T23:39:53.856Z,17.60
2022-10-05T23:44:55.510Z,17.30
2022-10-05T23:49:57.221Z,17.70
2022-10-05T23:54:58.891Z,17.70
